Time;durP1;ratioP1;P1;durP2;ratioP2;P2;SDS_P1;SDS_P2;PMS_P1;PMS_P2;Temp;Humidity;BMP_temperature;BMP_pressure;BME280_temperature;BME280_humidity;BME280_pressure;Samples;Min_cycle;Max_cycle;Signal;HPM_P1;HPM_P2
2023/03/05 00:01:24;;;;;;;;;;;;;;;;;;1693062;84;27423;-50
2023/03/05 00:03:54;;;;;;;6.40;2.92;;;;;;;;;;1666538;84;25475;-57
2023/03/05 00:06:24;;;;;;;7.70;3.02;;;;;;;;;;1690185;84;25619;-54
2023/03/05 00:08:54;;;;;;;7.62;3.00;;;;;;;;;;1689601;83;25687;-50
2023/03/05 00:11:24;;;;;;;9.65;2.85;;;;;;;;;;1666719;84;25510;-54
2023/03/05 00:13:52;;;;;;;10.75;3.05;;;;;;;;;;1689986;84;27208;-54
2023/03/05 00:16:20;;;;;;;6.83;2.80;;;;;;;;;;1689931;84;25830;-54
2023/03/05 00:18:48;;;;;;;9.15;2.72;;;;;;;;;;1689490;84;25655;-53
2023/03/05 00:21:25;;;;;;;7.28;3.42;;;;;;;;;;1690425;84;27779;-53
2023/03/05 00:23:53;;;;;;;11.28;5.35;;;;;;;;;;1690723;84;25421;-51
2023/03/05 00:26:24;;;;;;;6.30;3.15;;;;;;;;;;1690669;84;27396;-51
2023/03/05 00:28:52;;;;;;;7.15;2.55;;;;;;;;;;1690578;84;25521;-52
2023/03/05 00:31:23;;;;;;;3.25;2.02;;;;;;;;;;1690822;84;25485;-52
2023/03/05 00:33:54;;;;;;;9.88;3.17;;;;;;;;;;1690621;84;25569;-51
2023/03/05 00:36:23;;;;;;;13.10;2.77;;;;;;;;;;1690712;84;25533;-51
2023/03/05 00:38:51;;;;;;;;;;;;;;;;;;1693180;84;28016;-51
2023/03/05 00:41:19;;;;;;;3.92;2.60;;;;;;;;;;1690561;84;25454;-52
2023/03/05 00:43:47;;;;;;;6.37;2.37;;;;;;;;;;1690639;84;25369;-53
2023/03/05 00:46:15;;;;;;;6.40;2.30;;;;;;;;;;1690615;84;25696;-50
2023/03/05 00:48:44;;;;;;;11.00;2.98;;;;;;;;;;1690656;84;25478;-55
2023/03/05 00:51:13;;;;;;;5.53;2.50;;;;;;;;;;1690897;84;27512;-52
2023/03/05 00:53:40;;;;;;;7.53;2.55;;;;;;;;;;1690680;84;25383;-54
2023/03/05 00:56:07;;;;;;;8.15;2.67;;;;;;;;;;1690604;84;25542;-53
2023/03/05 00:58:34;;;;;;;7.67;2.83;;;;;;;;;;1690594;84;25524;-54
2023/03/05 01:01:02;;;;;;;16.32;4.85;;;;;;;;;;1690672;84;25334;-52
2023/03/05 01:03:31;;;;;;;11.70;4.92;;;;;;;;;;1690082;84;28438;-51
2023/03/05 01:06:00;;;;;;;9.28;3.85;;;;;;;;;;1689750;84;25508;-50
2023/03/05 01:08:27;;;;;;;10.90;3.95;;;;;;;;;;1690344;84;25515;-51
2023/03/05 01:10:54;;;;;;;13.10;3.22;;;;;;;;;;1690487;84;25578;-49
2023/03/05 01:13:22;;;;;;;8.18;2.58;;;;;;;;;;1690655;84;25577;-49
2023/03/05 01:15:49;;;;;;;5.25;2.85;;;;;;;;;;1690658;84;27387;-51
2023/03/05 01:18:19;;;;;;;6.83;2.60;;;;;;;;;;1690523;84;25389;-49
2023/03/05 01:20:46;;;;;;;6.15;2.52;;;;;;;;;;1690763;84;25515;-51
2023/03/05 01:23:14;;;;;;;6.65;3.00;;;;;;;;;;1690563;84;25549;-50
2023/03/05 01:25:42;;;;;;;5.15;2.80;;;;;;;;;;1690659;84;25571;-53
2023/03/05 01:28:09;;;;;;;5.28;3.08;;;;;;;;;;1690613;84;27806;-52
2023/03/05 01:30:37;;;;;;;6.90;3.17;;;;;;;;;;1690562;84;25409;-53
2023/03/05 01:33:05;;;;;;;15.35;5.05;;;;;;;;;;1666606;84;25461;-49
2023/03/05 01:35:33;;;;;;;19.70;5.95;;;;;;;;;;1690615;84;25608;-51
2023/03/05 01:38:01;;;;;;;8.83;4.45;;;;;;;;;;1690611;84;25338;-52
2023/03/05 01:40:31;;;;;;;10.98;3.77;;;;;;;;;;1690625;84;28139;-50
2023/03/05 01:43:14;;;;;;;11.60;3.95;;;;;;;;;;1690548;84;25364;-51
2023/03/05 01:46:15;;;;;;;11.33;4.12;;;;;;;;;;1690605;84;25477;-50
2023/03/05 01:49:12;;;;;;;11.03;4.20;;;;;;;;;;1690524;84;25556;-51
2023/03/05 01:51:46;;;;;;;14.58;4.47;;;;;;;;;;1690593;84;25339;-51
2023/03/05 01:54:17;;;;;;;14.07;4.78;;;;;;;;;;1672352;84;27486;-51
2023/03/05 01:56:46;;;;;;;10.88;4.30;;;;;;;;;;1690469;84;25485;-51
2023/03/05 01:59:14;;;;;;;10.20;4.87;;;;;;;;;;1690730;84;25338;-51
2023/03/05 02:01:44;;;;;;;12.33;4.85;;;;;;;;;;1690581;84;25631;-52
2023/03/05 02:04:14;;;;;;;14.28;4.60;;;;;;;;;;1690557;84;25330;-54
2023/03/05 02:06:43;;;;;;;16.62;4.62;;;;;;;;;;1690599;84;27386;-52
2023/03/05 02:09:11;;;;;;;7.27;3.13;;;;;;;;;;1666934;84;25443;-54
2023/03/05 02:11:39;;;;;;;13.95;4.62;;;;;;;;;;1690978;84;25476;-51
2023/03/05 02:14:07;;;;;;;14.68;5.17;;;;;;;;;;1671143;84;25401;-52
2023/03/05 02:16:37;;;;;;;9.17;4.83;;;;;;;;;;1691581;84;25575;-51
2023/03/05 02:19:07;;;;;;;14.40;4.40;;;;;;;;;;1691307;84;27425;-51
2023/03/05 02:21:41;;;;;;;15.05;4.75;;;;;;;;;;1691360;84;25832;-51
2023/03/05 02:24:14;;;;;;;13.32;4.95;;;;;;;;;;1670438;84;25606;-56
2023/03/05 02:26:43;;;;;;;9.88;4.70;;;;;;;;;;1691333;84;26070;-52
2023/03/05 02:29:14;;;;;;;11.10;4.70;;;;;;;;;;1691489;84;25383;-52
2023/03/05 02:31:41;;;;;;;11.00;4.40;;;;;;;;;;1691304;84;27389;-51
2023/03/05 02:34:08;;;;;;;12.90;4.58;;;;;;;;;;1691250;84;25945;-55
2023/03/05 02:36:35;;;;;;;12.78;4.85;;;;;;;;;;1694849;84;25334;-51
2023/03/05 02:39:03;;;;;;;12.20;4.60;;;;;;;;;;1691377;84;25708;-53
2023/03/05 02:41:31;;;;;;;8.18;4.10;;;;;;;;;;1671472;84;25589;-51
2023/03/05 02:43:59;;;;;;;14.80;4.70;;;;;;;;;;1691351;84;27502;-51
2023/03/05 02:46:26;;;;;;;11.08;4.30;;;;;;;;;;1691233;84;25327;-51
2023/03/05 02:48:54;;;;;;;10.78;4.17;;;;;;;;;;1691279;84;25317;-50
2023/03/05 02:51:21;;;;;;;8.63;4.37;;;;;;;;;;1691257;84;25549;-50
2023/03/05 02:53:48;;;;;;;19.12;4.80;;;;;;;;;;1691295;84;25536;-53
2023/03/05 02:56:15;;;;;;;10.53;5.15;;;;;;;;;;1691288;84;27423;-51
2023/03/05 02:58:43;;;;;;;11.45;4.10;;;;;;;;;;1671336;84;25491;-53
2023/03/05 03:01:10;;;;;;;13.75;5.45;;;;;;;;;;1691302;84;25544;-51
2023/03/05 03:03:39;;;;;;;11.20;4.78;;;;;;;;;;1691268;84;25519;-54
2023/03/05 03:06:07;;;;;;;13.30;4.92;;;;;;;;;;1691488;84;25581;-50
2023/03/05 03:08:34;;;;;;;10.93;4.37;;;;;;;;;;1691290;83;27500;-50
2023/03/05 03:11:11;;;;;;;13.85;4.80;;;;;;;;;;1691136;84;27204;-51
2023/03/05 03:13:39;;;;;;;16.40;5.12;;;;;;;;;;1691345;84;25473;-52
2023/03/05 03:16:11;;;;;;;12.40;4.72;;;;;;;;;;1691236;84;27694;-52
2023/03/05 03:18:38;;;;;;;12.28;5.47;;;;;;;;;;1691384;84;25563;-50
2023/03/05 03:21:05;;;;;;;16.07;5.65;;;;;;;;;;1691274;84;27369;-52
2023/03/05 03:23:33;;;;;;;14.63;4.40;;;;;;;;;;1671358;84;25489;-51
2023/03/05 03:26:00;;;;;;;13.10;4.80;;;;;;;;;;1671266;84;25573;-52
2023/03/05 03:28:27;;;;;;;16.70;5.87;;;;;;;;;;1691289;84;25584;-52
2023/03/05 03:30:54;;;;;;;11.78;5.10;;;;;;;;;;1691306;84;25371;-53
2023/03/05 03:33:23;;;;;;;14.38;5.42;;;;;;;;;;1691318;84;27199;-51
2023/03/05 03:35:50;;;;;;;14.25;4.90;;;;;;;;;;1691225;84;25672;-52
2023/03/05 03:38:17;;;;;;;20.40;6.53;;;;;;;;;;1691282;84;25561;-51
2023/03/05 03:40:44;;;;;;;13.90;5.58;;;;;;;;;;1691217;84;27712;-51
2023/03/05 03:43:11;;;;;;;14.10;5.15;;;;;;;;;;1691318;84;25399;-50
2023/03/05 03:45:41;;;;;;;16.20;5.85;;;;;;;;;;1691290;84;27421;-54
2023/03/05 03:48:07;;;;;;;;;;;;;;;;;;1693796;84;25660;-50
2023/03/05 03:50:38;;;;;;;16.12;5.53;;;;;;;;;;1691431;84;25540;-54
2023/03/05 03:53:07;;;;;;;11.73;4.40;;;;;;;;;;1694067;84;25578;-52
2023/03/05 03:55:34;;;;;;;13.40;4.40;;;;;;;;;;1691607;84;25405;-51
2023/03/05 03:58:02;;;;;;;12.28;4.62;;;;;;;;;;1691491;84;27480;-51
2023/03/05 04:00:29;;;;;;;17.27;5.53;;;;;;;;;;1691631;84;25331;-51
2023/03/05 04:02:57;;;;;;;12.23;4.70;;;;;;;;;;1691462;84;25500;-52
2023/03/05 04:05:24;;;;;;;10.65;4.65;;;;;;;;;;1671251;84;25623;-55
2023/03/05 04:07:52;;;;;;;15.72;5.97;;;;;;;;;;1691438;84;25476;-55
2023/03/05 04:10:19;;;;;;;10.18;4.92;;;;;;;;;;1691379;84;27479;-54
2023/03/05 04:12:47;;;;;;;14.10;4.17;;;;;;;;;;1690600;84;25376;-51
2023/03/05 04:15:14;;;;;;;12.30;4.78;;;;;;;;;;1666835;84;25451;-51
2023/03/05 04:17:41;;;;;;;11.20;4.35;;;;;;;;;;1666810;84;25640;-50
2023/03/05 04:20:10;;;;;;;11.90;4.47;;;;;;;;;;1690670;84;25306;-51
2023/03/05 04:22:37;;;;;;;14.68;5.33;;;;;;;;;;1690781;84;27531;-52
2023/03/05 04:25:07;;;;;;;14.33;4.50;;;;;;;;;;1690563;84;25690;-51
2023/03/05 04:27:36;;;;;;;13.53;4.70;;;;;;;;;;1690787;84;25403;-52
2023/03/05 04:30:05;;;;;;;11.30;4.92;;;;;;;;;;1690622;84;25592;-51
2023/03/05 04:32:32;;;;;;;9.30;3.50;;;;;;;;;;1690817;84;25545;-52
2023/03/05 04:34:59;;;;;;;11.73;4.47;;;;;;;;;;1690634;84;27411;-52
2023/03/05 04:37:27;;;;;;;17.00;5.42;;;;;;;;;;1690580;84;25515;-53
2023/03/05 04:39:54;;;;;;;11.63;4.78;;;;;;;;;;1690560;84;25500;-54
2023/03/05 04:42:21;;;;;;;14.55;4.85;;;;;;;;;;1690617;84;25540;-53
2023/03/05 04:44:50;;;;;;;13.58;5.28;;;;;;;;;;1690676;84;25521;-54
2023/03/05 04:47:18;;;;;;;15.37;4.97;;;;;;;;;;1690914;84;27340;-54
2023/03/05 04:49:46;;;;;;;12.70;5.00;;;;;;;;;;1690738;84;25734;-52
2023/03/05 04:52:14;;;;;;;10.63;4.33;;;;;;;;;;1690627;84;25367;-51
2023/03/05 04:54:44;;;;;;;14.95;4.83;;;;;;;;;;1690624;84;26196;-54
2023/03/05 04:57:12;;;;;;;13.62;5.60;;;;;;;;;;1666663;84;25566;-51
2023/03/05 04:59:39;;;;;;;16.02;5.75;;;;;;;;;;1690584;84;27448;-54
2023/03/05 05:02:06;;;;;;;13.22;4.95;;;;;;;;;;1690542;84;25906;-52
2023/03/05 05:04:34;;;;;;;16.62;4.65;;;;;;;;;;1690653;84;25481;-51
2023/03/05 05:07:03;;;;;;;14.65;5.00;;;;;;;;;;1690745;84;25545;-51
2023/03/05 05:09:31;;;;;;;14.23;4.28;;;;;;;;;;1690764;84;25454;-53
2023/03/05 05:11:58;;;;;;;10.98;4.37;;;;;;;;;;1668554;84;27288;-51
2023/03/05 05:14:25;;;;;;;10.38;4.30;;;;;;;;;;1691302;84;25588;-51
2023/03/05 05:16:52;;;;;;;10.53;4.67;;;;;;;;;;1691381;84;25339;-51
2023/03/05 05:19:19;;;;;;;13.83;4.00;;;;;;;;;;1695852;84;26072;-52
2023/03/05 05:21:48;;;;;;;11.00;5.10;;;;;;;;;;1695873;84;25569;-51
2023/03/05 05:24:15;;;;;;;8.50;3.77;;;;;;;;;;1673826;84;27087;-52
2023/03/05 05:26:42;;;;;;;11.70;4.72;;;;;;;;;;1673611;84;25533;-51
2023/03/05 05:29:09;;;;;;;11.20;4.30;;;;;;;;;;1695820;84;25458;-50
2023/03/05 05:31:37;;;;;;;11.25;4.62;;;;;;;;;;1695815;84;25532;-51
2023/03/05 05:34:06;;;;;;;12.93;5.53;;;;;;;;;;1696131;84;25563;-51
2023/03/05 05:36:32;;;;;;;11.08;4.70;;;;;;;;;;1695817;84;27466;-51
2023/03/05 05:38:59;;;;;;;13.90;5.17;;;;;;;;;;1695742;84;25837;-51
2023/03/05 05:41:26;;;;;;;10.72;4.78;;;;;;;;;;1695871;84;25377;-50
2023/03/05 05:43:54;;;;;;;15.60;4.78;;;;;;;;;;1695829;84;25628;-50
2023/03/05 05:46:23;;;;;;;10.70;4.65;;;;;;;;;;1695848;84;25383;-50
2023/03/05 05:48:51;;;;;;;15.65;4.22;;;;;;;;;;1695858;84;27420;-50
2023/03/05 05:51:22;;;;;;;12.85;4.58;;;;;;;;;;1695815;84;25326;-54
2023/03/05 05:53:49;;;;;;;11.50;3.87;;;;;;;;;;1695851;84;25513;-51
2023/03/05 05:56:17;;;;;;;10.20;5.00;;;;;;;;;;1673526;84;26428;-52
2023/03/05 05:58:47;;;;;;;10.15;4.55;;;;;;;;;;1695823;84;25459;-53
2023/03/05 06:01:17;;;;;;;12.95;5.12;;;;;;;;;;1695834;84;27504;-51
2023/03/05 06:03:46;;;;;;;11.70;4.37;;;;;;;;;;1695193;84;25385;-49
2023/03/05 06:06:16;;;;;;;16.70;5.08;;;;;;;;;;1695803;84;25505;-51
2023/03/05 06:08:44;;;;;;;12.05;4.60;;;;;;;;;;1695749;84;25515;-51
2023/03/05 06:11:12;;;;;;;15.23;5.08;;;;;;;;;;1673394;83;25592;-51
2023/03/05 06:13:40;;;;;;;12.35;4.97;;;;;;;;;;1704609;84;27396;-52
2023/03/05 06:16:11;;;;;;;13.05;5.20;;;;;;;;;;1704497;84;25518;-52
2023/03/05 06:18:39;;;;;;;11.20;4.78;;;;;;;;;;1703876;84;25534;-53
2023/03/05 06:21:12;;;;;;;9.43;4.53;;;;;;;;;;1704535;84;25554;-51
2023/03/05 06:23:41;;;;;;;8.95;4.35;;;;;;;;;;1704660;84;25312;-51
2023/03/05 06:26:11;;;;;;;10.65;4.28;;;;;;;;;;1704749;84;27143;-52
2023/03/05 06:28:40;;;;;;;12.82;4.62;;;;;;;;;;1704503;84;25628;-55
2023/03/05 06:31:16;;;;;;;14.23;4.42;;;;;;;;;;1704711;83;25456;-53
2023/03/05 06:33:44;;;;;;;17.35;6.40;;;;;;;;;;1704556;84;27680;-52
2023/03/05 06:36:15;;;;;;;15.25;4.83;;;;;;;;;;1704601;84;25520;-51
2023/03/05 06:38:43;;;;;;;12.98;4.95;;;;;;;;;;1704617;84;27925;-52
2023/03/05 06:41:14;;;;;;;11.00;4.33;;;;;;;;;;1704723;84;25340;-52
2023/03/05 06:43:44;;;;;;;15.20;4.87;;;;;;;;;;1704545;84;25348;-52
2023/03/05 06:46:18;;;;;;;14.23;3.75;;;;;;;;;;1704567;84;25520;-52
2023/03/05 06:48:48;;;;;;;11.45;4.22;;;;;;;;;;1704651;84;25488;-51
2023/03/05 06:51:23;;;;;;;9.28;3.77;;;;;;;;;;1704546;84;27435;-53
2023/03/05 06:53:51;;;;;;;9.20;3.75;;;;;;;;;;1704263;84;25544;-52
2023/03/05 06:56:20;;;;;;;12.85;4.58;;;;;;;;;;1704599;84;25321;-51
2023/03/05 06:58:50;;;;;;;14.78;3.58;;;;;;;;;;1704682;83;26028;-51
2023/03/05 07:01:19;;;;;;;11.05;3.95;;;;;;;;;;1704640;84;25580;-53
2023/03/05 07:03:52;;;;;;;5.78;2.83;;;;;;;;;;1704706;84;27418;-53
2023/03/05 07:06:21;;;;;;;11.60;3.37;;;;;;;;;;1704502;84;25487;-54
2023/03/05 07:08:49;;;;;;;7.45;3.55;;;;;;;;;;1704722;84;25488;-52
2023/03/05 07:11:21;;;;;;;9.90;3.30;;;;;;;;;;1701915;84;25703;-51
2023/03/05 07:13:49;;;;;;;11.65;3.65;;;;;;;;;;1691688;84;25460;-51
2023/03/05 07:16:24;;;;;;;9.15;3.25;;;;;;;;;;1691162;84;27395;-51
2023/03/05 07:18:53;;;;;;;8.18;3.47;;;;;;;;;;1690971;84;25467;-51
2023/03/05 07:21:24;;;;;;;11.12;3.40;;;;;;;;;;1691170;84;25410;-56
2023/03/05 07:23:54;;;;;;;8.85;3.35;;;;;;;;;;1690690;84;25717;-51
2023/03/05 07:26:22;;;;;;;;;;;;;;;;;;1693694;84;25477;-51
2023/03/05 07:28:51;;;;;;;7.58;3.35;;;;;;;;;;1692564;84;28348;-53
2023/03/05 07:31:21;;;;;;;9.65;3.90;;;;;;;;;;1691200;84;25500;-53
2023/03/05 07:33:50;;;;;;;10.05;4.03;;;;;;;;;;1691210;84;25492;-52
2023/03/05 07:36:18;;;;;;;9.60;3.47;;;;;;;;;;1691235;84;25510;-53
2023/03/05 07:38:45;;;;;;;62.35;57.88;;;;;;;;;;1691232;84;25379;-51
2023/03/05 07:41:18;;;;;;;13.83;11.43;;;;;;;;;;1691220;84;27380;-57
2023/03/05 07:43:50;;;;;;;8.85;3.70;;;;;;;;;;1691233;84;25516;-57
2023/03/05 07:46:20;;;;;;;11.05;4.47;;;;;;;;;;1691297;84;25520;-59
2023/03/05 07:48:47;;;;;;;9.93;3.62;;;;;;;;;;1691290;84;25549;-58
2023/03/05 07:51:18;;;;;;;9.38;3.90;;;;;;;;;;1691176;84;25467;-56
2023/03/05 07:53:48;;;;;;;8.20;5.70;;;;;;;;;;1691199;84;27178;-59
2023/03/05 07:56:30;;;;;;;10.78;8.53;;;;;;;;;;1691185;84;25526;-59
2023/03/05 07:58:59;;;;;;;7.00;4.22;;;;;;;;;;1691204;84;25381;-59
2023/03/05 08:01:29;;;;;;;9.80;3.75;;;;;;;;;;1691136;84;25705;-59
2023/03/05 08:03:57;;;;;;;19.67;18.07;;;;;;;;;;1691199;84;25476;-56
2023/03/05 08:06:24;;;;;;;51.10;47.85;;;;;;;;;;1691161;84;27456;-57
2023/03/05 08:08:52;;;;;;;59.30;55.30;;;;;;;;;;1692549;84;26601;-56
2023/03/05 08:11:19;;;;;;;5.87;3.37;;;;;;;;;;1691151;84;25703;-59
2023/03/05 08:13:48;;;;;;;7.25;5.08;;;;;;;;;;1701749;83;25831;-58
2023/03/05 08:16:18;;;;;;;6.85;4.20;;;;;;;;;;1704691;84;25310;-55
2023/03/05 08:18:47;;;;;;;8.08;3.60;;;;;;;;;;1704709;84;27430;-56
2023/03/05 08:21:25;;;;;;;7.22;2.92;;;;;;;;;;1704602;84;25458;-56
2023/03/05 08:23:55;;;;;;;6.40;3.12;;;;;;;;;;1704405;84;25475;-57
2023/03/05 08:26:26;;;;;;;5.80;2.92;;;;;;;;;;1677945;84;26525;-58
2023/03/05 08:28:55;;;;;;;8.10;3.22;;;;;;;;;;1702211;84;25552;-55
2023/03/05 08:31:26;;;;;;;7.12;3.02;;;;;;;;;;1704722;84;27480;-53
2023/03/05 08:33:56;;;;;;;10.65;3.67;;;;;;;;;;1704685;84;25105;-57
2023/03/05 08:36:24;;;;;;;7.40;2.98;;;;;;;;;;1704687;84;25332;-55
2023/03/05 08:38:52;;;;;;;6.62;3.37;;;;;;;;;;1704787;84;25842;-57
2023/03/05 08:41:22;;;;;;;6.00;3.00;;;;;;;;;;1704762;84;25379;-55
2023/03/05 08:43:51;;;;;;;7.10;2.83;;;;;;;;;;1704800;84;28212;-55
2023/03/05 08:46:18;;;;;;;6.87;2.83;;;;;;;;;;1704663;84;25519;-55
2023/03/05 08:48:46;;;;;;;6.15;2.95;;;;;;;;;;1701717;84;25402;-56
2023/03/05 08:51:18;;;;;;;6.50;2.95;;;;;;;;;;1704841;84;25512;-54
2023/03/05 08:53:50;;;;;;;5.50;3.08;;;;;;;;;;1704725;84;25317;-57
2023/03/05 08:56:19;;;;;;;6.42;2.95;;;;;;;;;;1704803;84;27026;-56
2023/03/05 08:58:46;;;;;;;;;;;;;;;;;;1706982;84;25579;-56
2023/03/05 09:01:16;;;;;;;6.90;3.33;;;;;;;;;;1704368;84;25535;-55
2023/03/05 09:03:45;;;;;;;9.60;3.50;;;;;;;;;;1704622;84;25510;-53
2023/03/05 09:06:12;;;;;;;10.20;4.00;;;;;;;;;;1704780;84;25380;-53
2023/03/05 09:08:41;;;;;;;7.12;3.10;;;;;;;;;;1701883;84;28028;-53
2023/03/05 09:11:12;;;;;;;10.60;3.58;;;;;;;;;;1704674;84;25464;-56
2023/03/05 09:13:41;;;;;;;9.08;3.37;;;;;;;;;;1696045;84;25495;-55
2023/03/05 09:16:13;;;;;;;11.25;4.28;;;;;;;;;;1691209;84;25997;-54
2023/03/05 09:18:43;;;;;;;15.58;4.50;;;;;;;;;;1691133;84;25546;-54
2023/03/05 09:21:14;;;;;;;9.75;4.40;;;;;;;;;;1691132;84;27476;-55
2023/03/05 09:23:42;;;;;;;10.95;5.25;;;;;;;;;;1690447;84;25745;-54
2023/03/05 09:26:12;;;;;;;11.80;4.60;;;;;;;;;;1692598;84;25345;-56
2023/03/05 09:28:40;;;;;;;11.25;4.47;;;;;;;;;;1691223;84;25698;-56
2023/03/05 09:31:08;;;;;;;12.00;5.22;;;;;;;;;;1691087;84;25475;-54
2023/03/05 09:33:37;;;;;;;15.95;5.85;;;;;;;;;;1690560;84;27399;-54
2023/03/05 09:36:05;;;;;;;16.85;5.95;;;;;;;;;;1689850;84;25694;-56
2023/03/05 09:38:32;;;;;;;14.47;6.37;;;;;;;;;;1690407;84;25596;-53
2023/03/05 09:41:12;;;;;;;13.38;5.83;;;;;;;;;;1690402;83;25690;-53
2023/03/05 09:44:12;;;;;;;14.58;6.92;;;;;;;;;;1688376;84;25703;-54
2023/03/05 09:46:54;;;;;;;9.08;5.30;;;;;;;;;;1690367;84;27492;-54
2023/03/05 09:49:44;;;;;;;20.25;10.53;;;;;;;;;;1690985;84;25371;-55
2023/03/05 09:52:15;;;;;;;14.60;7.92;;;;;;;;;;1686111;85;25507;-52
2023/03/05 09:54:44;;;;;;;16.93;8.40;;;;;;;;;;1685244;85;25598;-52
2023/03/05 09:57:13;;;;;;;;;;;;;;;;;;1665343;85;25519;-54
2023/03/05 09:59:47;;;;;;;12.23;5.60;;;;;;;;;;1686459;85;27899;-55
2023/03/05 10:02:32;;;;;;;14.53;6.40;;;;;;;;;;1686088;85;25631;-55
2023/03/05 10:05:09;;;;;;;18.65;10.90;;;;;;;;;;1686222;85;25442;-53
2023/03/05 10:07:40;;;;;;;13.08;6.05;;;;;;;;;;1686192;85;26132;-53
2023/03/05 10:10:12;;;;;;;27.65;25.05;;;;;;;;;;1685772;85;25431;-56
2023/03/05 10:12:43;;;;;;;32.48;24.92;;;;;;;;;;1686362;84;27378;-54
2023/03/05 10:18:17;;;;;;;15.40;6.03;;;;;;;;;;1766165;77;27345;-53
2023/03/05 10:20:54;;;;;;;16.05;5.72;;;;;;;;;;1736900;82;26288;-53
2023/03/05 10:23:40;;;;;;;16.52;7.40;;;;;;;;;;1737723;82;25586;-53
2023/03/05 10:26:44;;;;;;;14.35;6.22;;;;;;;;;;1737289;82;27395;-52
2023/03/05 10:29:36;;;;;;;14.05;6.05;;;;;;;;;;1720788;83;25620;-55
2023/03/05 10:32:07;;;;;;;19.32;11.95;;;;;;;;;;1750295;82;25498;-53
2023/03/05 10:34:55;;;;;;;15.88;6.85;;;;;;;;;;1750312;82;25505;-55
2023/03/05 10:37:35;;;;;;;10.75;4.53;;;;;;;;;;1749428;82;25536;-57
2023/03/05 10:40:11;;;;;;;21.30;18.82;;;;;;;;;;1750481;82;27991;-54
2023/03/05 10:42:48;;;;;;;32.30;29.40;;;;;;;;;;1749697;82;25566;-54
2023/03/05 10:45:18;;;;;;;33.75;30.50;;;;;;;;;;1750235;82;25407;-55
2023/03/05 10:48:00;;;;;;;16.85;9.75;;;;;;;;;;1749471;82;25577;-54
2023/03/05 10:50:34;;;;;;;17.40;7.22;;;;;;;;;;1750530;82;25345;-53
2023/03/05 10:53:29;;;;;;;16.85;8.33;;;;;;;;;;1750386;82;27443;-54
2023/03/05 10:56:02;;;;;;;21.27;10.65;;;;;;;;;;1749650;82;25594;-54
2023/03/05 10:58:30;;;;;;;18.48;12.40;;;;;;;;;;1750391;82;25402;-53
2023/03/05 11:01:05;;;;;;;23.70;17.17;;;;;;;;;;1724860;82;25483;-50
2023/03/05 11:04:06;;;;;;;25.30;23.02;;;;;;;;;;1748608;82;25717;-54
2023/03/05 11:06:39;;;;;;;25.52;22.65;;;;;;;;;;1749989;82;27391;-53
2023/03/05 11:09:34;;;;;;;31.55;28.98;;;;;;;;;;1743874;82;25571;-56
2023/03/05 11:12:10;;;;;;;36.68;33.45;;;;;;;;;;1763935;78;26601;-56
2023/03/05 11:26:04;;;;;;;22.15;9.35;;;;;;;;;;1789925;79;25264;-55
2023/03/05 11:28:42;;;;;;;17.95;8.78;;;;;;;;;;1767668;80;25328;-57
2023/03/05 11:31:19;;;;;;;16.23;8.75;;;;;;;;;;1791700;80;25272;-57
2023/03/05 11:34:00;;;;;;;18.82;9.65;;;;;;;;;;1794317;80;27248;-53
2023/03/05 11:40:21;;;;;;;51.90;47.33;;;;;;;;;;1794578;77;25358;-54
2023/03/05 11:42:56;;;;;;;19.77;12.53;;;;;;;;;;1785133;77;26019;-55
2023/03/05 11:45:28;;;;;;;19.07;9.10;;;;;;;;;;1743521;82;25042;-53
2023/03/05 11:53:23;;;;;;;28.23;25.62;;;;;;;;;;1732687;78;25450;-56
2023/03/05 11:56:15;;;;;;;18.25;16.12;;;;;;;;;;1726646;83;25814;-54
2023/03/05 11:59:03;;;;;;;25.25;20.62;;;;;;;;;;1727059;83;25388;-54
2023/03/05 12:01:34;;;;;;;11.78;7.95;;;;;;;;;;1727192;83;27220;-57
2023/03/05 12:04:03;;;;;;;15.40;13.35;;;;;;;;;;1726988;83;25383;-56
2023/03/05 12:06:45;;;;;;;9.08;5.80;;;;;;;;;;1727178;83;25383;-52
2023/03/05 12:09:24;;;;;;;11.05;5.65;;;;;;;;;;1727026;83;25363;-55
2023/03/05 12:11:55;;;;;;;16.97;7.60;;;;;;;;;;1696825;84;25360;-53
2023/03/05 12:14:38;;;;;;;12.18;6.45;;;;;;;;;;1726846;83;27188;-55
2023/03/05 12:17:08;;;;;;;11.78;6.00;;;;;;;;;;1695215;84;25868;-54
2023/03/05 12:19:45;;;;;;;14.75;7.70;;;;;;;;;;1726270;83;25325;-56
2023/03/05 12:22:21;;;;;;;15.40;7.47;;;;;;;;;;1696559;84;25827;-53
2023/03/05 12:24:48;;;;;;;17.48;8.90;;;;;;;;;;1726563;83;25390;-55
2023/03/05 12:27:33;;;;;;;16.45;8.00;;;;;;;;;;1696615;84;27225;-56
2023/03/05 12:30:01;;;;;;;12.00;7.28;;;;;;;;;;1727114;83;25346;-55
2023/03/05 12:32:32;;;;;;;13.40;6.90;;;;;;;;;;1696376;84;25017;-53
2023/03/05 12:35:03;;;;;;;15.58;6.62;;;;;;;;;;1726723;83;25418;-54
2023/03/05 12:37:33;;;;;;;13.62;8.25;;;;;;;;;;1696254;84;25351;-53
2023/03/05 12:40:24;;;;;;;16.17;12.10;;;;;;;;;;1727176;83;27818;-51
2023/03/05 12:43:02;;;;;;;16.02;14.35;;;;;;;;;;1725842;83;25348;-52
2023/03/05 12:45:40;;;;;;;17.85;12.33;;;;;;;;;;1727182;83;25290;-56
2023/03/05 12:48:14;;;;;;;18.77;13.65;;;;;;;;;;1727221;83;25369;-53
2023/03/05 12:50:46;;;;;;;17.32;15.65;;;;;;;;;;1727278;83;25302;-58
2023/03/05 12:53:17;;;;;;;19.65;9.58;;;;;;;;;;1727064;83;27195;-55
2023/03/05 12:55:47;;;;;;;18.50;15.70;;;;;;;;;;1727143;83;25361;-56
2023/03/05 12:58:39;;;;;;;17.75;9.78;;;;;;;;;;1727041;82;25335;-54
2023/03/05 13:01:12;;;;;;;14.20;10.98;;;;;;;;;;1697764;83;25585;-63
2023/03/05 13:03:44;;;;;;;19.02;12.88;;;;;;;;;;1727069;83;25505;-51
2023/03/05 13:06:31;;;;;;;16.10;8.05;;;;;;;;;;1646113;84;27108;-56
2023/03/05 13:09:16;;;;;;;15.00;8.35;;;;;;;;;;1727122;83;25401;-54
2023/03/05 13:11:47;;;;;;;12.93;7.60;;;;;;;;;;1696545;84;25389;-57
2023/03/05 13:14:32;;;;;;;14.35;8.35;;;;;;;;;;1727119;83;26012;-58
2023/03/05 13:17:00;;;;;;;11.80;6.05;;;;;;;;;;1696618;84;25336;-56
2023/03/05 13:19:28;;;;;;;14.05;7.22;;;;;;;;;;1727165;83;27221;-56
2023/03/05 13:22:00;;;;;;;13.48;7.47;;;;;;;;;;1696479;84;25317;-57
2023/03/05 13:24:28;;;;;;;13.78;8.23;;;;;;;;;;1727154;83;25385;-56
2023/03/05 13:26:55;;;;;;;10.45;6.40;;;;;;;;;;1696515;84;25390;-58
2023/03/05 13:29:29;;;;;;;15.93;7.53;;;;;;;;;;1727165;83;24994;-57
2023/03/05 13:31:58;;;;;;;17.30;8.23;;;;;;;;;;1696503;84;29036;-57
2023/03/05 13:34:31;;;;;;;14.83;7.83;;;;;;;;;;1727057;83;25403;-56
2023/03/05 13:37:07;;;;;;;12.93;7.12;;;;;;;;;;1696549;84;25375;-54
2023/03/05 13:39:37;;;;;;;10.58;6.60;;;;;;;;;;1725984;83;25353;-56
2023/03/05 13:42:05;;;;;;;;;;;;;;;;;;1698562;84;25336;-57
2023/03/05 13:44:33;;;;;;;11.25;5.87;;;;;;;;;;1729990;83;27776;-57
2023/03/05 13:47:16;;;;;;;12.68;5.40;;;;;;;;;;1697790;84;25553;-57
2023/03/05 13:49:44;;;;;;;10.63;6.50;;;;;;;;;;1696346;84;25413;-56
2023/03/05 13:52:14;;;;;;;12.95;6.42;;;;;;;;;;1727471;82;25311;-56
2023/03/05 13:54:40;;;;;;;9.20;6.15;;;;;;;;;;1699668;84;25407;-57
2023/03/05 13:57:11;;;;;;;12.15;5.78;;;;;;;;;;1730274;82;27254;-55
2023/03/05 13:59:38;;;;;;;13.85;6.08;;;;;;;;;;1696501;84;25420;-56
2023/03/05 14:02:16;;;;;;;11.57;5.47;;;;;;;;;;1729725;82;25547;-53
2023/03/05 14:04:45;;;;;;;10.75;5.33;;;;;;;;;;1674787;84;25599;-53
2023/03/05 14:07:34;;;;;;;8.30;3.60;;;;;;;;;;1704902;82;25403;-53
2023/03/05 14:10:03;;;;;;;11.85;5.40;;;;;;;;;;1728906;82;33236;-53
2023/03/05 14:12:39;;;;;;;9.23;5.77;;;;;;;;;;1729880;82;25460;-55
2023/03/05 14:15:27;;;;;;;7.90;4.58;;;;;;;;;;1699498;84;25399;-51
2023/03/05 14:18:12;;;;;;;10.35;5.00;;;;;;;;;;1729435;82;25282;-55
2023/03/05 14:21:00;;;;;;;15.60;6.30;;;;;;;;;;1699878;84;25365;-55
2023/03/05 14:23:39;;;;;;;9.60;5.92;;;;;;;;;;1730563;82;27787;-55
2023/03/05 14:26:29;;;;;;;15.53;5.47;;;;;;;;;;1699839;84;29539;-52
2023/03/05 14:29:00;;;;;;;8.15;4.75;;;;;;;;;;1730514;82;25299;-56
2023/03/05 14:31:29;;;;;;;8.85;5.12;;;;;;;;;;1699664;84;25361;-60
2023/03/05 14:34:03;;;;;;;;;;;;;;;;;;1733057;82;25374;-54
2023/03/05 14:36:31;;;;;;;11.15;5.40;;;;;;;;;;1699781;84;26958;-57
2023/03/05 14:38:59;;;;;;;10.90;6.12;;;;;;;;;;1730394;82;25406;-56
2023/03/05 14:41:38;;;;;;;18.65;7.03;;;;;;;;;;1699765;84;25343;-54
2023/03/05 14:44:11;;;;;;;14.58;6.75;;;;;;;;;;1730616;82;25361;-56
2023/03/05 14:46:39;;;;;;;12.07;5.08;;;;;;;;;;1698500;84;25386;-52
2023/03/05 14:49:06;;;;;;;12.28;5.20;;;;;;;;;;1729750;82;27218;-55
2023/03/05 14:51:39;;;;;;;11.08;5.65;;;;;;;;;;1699250;84;25543;-52
2023/03/05 14:54:06;;;;;;;12.68;6.20;;;;;;;;;;1727469;82;25563;-55
2023/03/05 14:56:34;;;;;;;11.90;7.20;;;;;;;;;;1696446;84;25932;-51
2023/03/05 14:59:01;;;;;;;11.95;6.00;;;;;;;;;;1727109;83;25322;-53
2023/03/05 15:01:28;;;;;;;14.33;5.85;;;;;;;;;;1696479;84;26849;-53
2023/03/05 15:03:55;;;;;;;13.70;4.92;;;;;;;;;;1698092;83;25665;-56
2023/03/05 15:06:26;;;;;;;11.50;5.85;;;;;;;;;;1696474;84;25314;-54
2023/03/05 15:08:53;;;;;;;12.28;8.28;;;;;;;;;;1726213;83;26953;-56
2023/03/05 15:11:21;;;;;;;11.93;7.25;;;;;;;;;;1696544;84;25340;-55
2023/03/05 15:13:51;;;;;;;12.43;7.05;;;;;;;;;;1727452;83;27192;-53
2023/03/05 15:16:18;;;;;;;11.08;5.45;;;;;;;;;;1667302;84;25569;-54
2023/03/05 15:18:46;;;;;;;16.02;7.30;;;;;;;;;;1727165;83;25326;-60
2023/03/05 15:21:13;;;;;;;15.65;8.05;;;;;;;;;;1668682;84;25385;-53